EGLC Airport Information

Runway Information
Runway 10 Length 4948 ft width 98 ft
Elevation 16 ft Threshold 358 ft Heading 93
Runway 28 Length 4948 ft Width 98 ft
Elevation 19 ft Threshold 211 ft Heading 273
Airport Frequencies
Type APP Name APP Frequency 132.7 MHZ
Type ATIS Name ATIS Frequency 136.35 MHZ
Type GND Name GND Frequency 121.825 MHZ
Type TWR Name TWR Frequency 118.075 MHZ
Airport Navaids
Type NDB Name City Frequency 322 KHZ
Airport Weather Information & NOTAM
ADDS - METARS form results

(0909 UTC 04 July 2020)
Data provider http://aviationweather.gov/metar/data/
 
METAR text: EGLC 040850Z AUTO 23014KT 210V270 9999 BKN017 OVC022 19/15 Q1010
Conditions at: EGLC (LONDON CITY AIRP, GB) observed 0850 UTC 04 July 2020
Temperature: 19.0°C (66°F)
Dewpoint: 15.0°C (59°F) [RH = 78%]
Pressure (altimeter): 29.82 inches Hg (1010.0 mb)
Winds: from the SW (230 degrees) at 16 MPH (14 knots; 7.2 m/s)
Visibility: 6 or more miles (10+ km)
Ceiling: 1700 feet AGL
Clouds: broken clouds at 1700 feet AGL
overcast cloud deck at 2200 feet AGL
Weather: no significant weather observed at this time

METAR text: EGLC 040820Z AUTO 23013KT 190V270 9999 BKN014 BKN020 OVC028 19/15 Q1010
Conditions at: EGLC (LONDON CITY AIRP, GB) observed 0820 UTC 04 July 2020
Temperature: 19.0°C (66°F)
Dewpoint: 15.0°C (59°F) [RH = 78%]
Pressure (altimeter): 29.82 inches Hg (1010.0 mb)
Winds: from the SW (230 degrees) at 15 MPH (13 knots; 6.7 m/s)
Visibility: 6 or more miles (10+ km)
Ceiling: 1400 feet AGL
Clouds: broken clouds at 1400 feet AGL
broken clouds at 2000 feet AGL
overcast cloud deck at 2800 feet AGL
Weather: no significant weather observed at this time

Forecast for: AMD
Text: TAF AMD EGLC 040906Z 0409/0418 23013KT 9999 BKN020
Forecast period: 0900 to 1800 UTC 04 July 2020
Forecast type: FROM: standard forecast or significant change
Winds: from the SW (230 degrees) at 15 MPH (13 knots; 6.7 m/s)
Visibility: 6 or more miles 10+ km)
Ceiling: 2000 feet AGL
Clouds: broken clouds at 2000 feet AGL
Weather: no significant weather forecast for this period
Text: TEMPO 0409/0418 BKN012
Forecast period: 0900 to 1800 UTC 04 July 2020
Forecast type: TEMPORARY: The following changes expected for less than half the time period
Visibility: missing
Ceiling: 1200 feet AGL
Clouds: broken clouds at 1200 feet AGL
Weather: no significant weather forecast for this period
Text: PROB40
Forecast period: 0900 to 1400 UTC 04 July 2020
Forecast type: TEMPORARY: The following changes expected for less than half the time period
Visibility: 4 miles (7 km)
Ceiling: 900 feet AGL
Clouds: broken clouds at 900 feet AGL
Weather: RA DZ  (moderate rain, moderate drizzle)